King Salmon Airport King Salmon US
ICAO: PAKN
IATA:
Category: Medium
Scheduled Services:

Elevation: 73 ft
TransAlt. 18000 ft.

Airport Communications:
HARMONY:140.1
ATIS:128.8
ANCHORAGE CNTR:124.8
CTAF:121.9
RDO:122.2
GND:121.9
OPS:37.22
PTD:37.22
TWR:118.3

PAKN Zoom In..

Runways:

(A) RW 12 length 8901 ft width 150 ft
ILS 110.30 / hdg 116

(B) RW 18 length 4018 ft width 100 ft
---- / hdg 180

(C) RW 30 length 8901 ft width 150 ft
---- / hdg 296

(D) RW 36 length 4018 ft width 100 ft
---- / hdg 360

Location; PAKN
Day. 23 / Time. 14.54 Zulu
* Altimeter: 30.14
* Temperature: -22° c. 7.6°f.
* Wind from: 360° Speed 09 kn.
Dewpoint: -27° c.
Visibility: 10 Statute Miles.
Clouds: Clear (automated report).

PAKN 231454Z AUTO 36009KT 10SM CLR M22/M27 A3014 RMK AO2 SLP207 T12221267 53009 TSNO $


Wind From 360°
Speed 09 kn.

YouTube Music Video
 
jpsmedia.com for Web Design  worldairports.se 2018   terms of use